createdAt,value
2023-05-15T00:00:00.036Z,95077.18
2023-05-15T00:01:06.237Z,95072.94
2023-05-15T00:02:13.317Z,95071.51
2023-05-15T00:03:19.938Z,95068.54
2023-05-15T00:04:27.600Z,95064.06
2023-05-15T00:05:35.161Z,95068.06
2023-05-15T00:06:41.926Z,95071.13
2023-05-15T00:07:47.691Z,95077.91
2023-05-15T00:08:53.972Z,95084.90
2023-05-15T00:10:00.785Z,95089.92
2023-05-15T00:11:07.149Z,95093.19
2023-05-15T00:12:13.303Z,95095.82
2023-05-15T00:13:21.296Z,95090.73
2023-05-15T00:14:27.439Z,95092.36
2023-05-15T00:15:33.596Z,95090.27
2023-05-15T00:16:40.543Z,95094.66
2023-05-15T00:17:46.778Z,95097.66
2023-05-15T00:18:52.900Z,95099.00
2023-05-15T00:20:01.216Z,95097.60
2023-05-15T00:21:07.603Z,95100.03
2023-05-15T00:22:13.806Z,95100.39
2023-05-15T00:23:20.197Z,95105.23
2023-05-15T00:24:26.200Z,95096.80
2023-05-15T00:25:33.377Z,95096.58
2023-05-15T00:26:39.122Z,95104.17
2023-05-15T00:27:46.193Z,95104.36
2023-05-15T00:28:52.962Z,95102.09
2023-05-15T00:29:59.091Z,95102.10
2023-05-15T00:31:06.288Z,95100.44
2023-05-15T00:32:12.296Z,95102.91
2023-05-15T00:33:18.258Z,95101.13
2023-05-15T00:34:24.445Z,95101.00
2023-05-15T00:35:32.346Z,95102.29
2023-05-15T00:36:38.888Z,95100.71
2023-05-15T00:37:45.476Z,95103.74
2023-05-15T00:38:51.945Z,95102.34
2023-05-15T00:39:57.778Z,95100.02
2023-05-15T00:41:04.842Z,95098.67
2023-05-15T00:42:11.470Z,95097.39
2023-05-15T00:43:18.919Z,95097.61
2023-05-15T00:44:28.589Z,95096.69
2023-05-15T00:45:42.001Z,95097.88
2023-05-15T00:46:51.182Z,95099.71
2023-05-15T00:48:01.344Z,95100.46
2023-05-15T00:49:14.027Z,95097.23
2023-05-15T00:50:22.815Z,95095.65
2023-05-15T00:51:28.904Z,95096.26
2023-05-15T00:52:36.476Z,95094.17
2023-05-15T00:53:44.606Z,95092.35
2023-05-15T00:54:51.032Z,95092.80
2023-05-15T00:56:00.061Z,95094.77
2023-05-15T00:57:05.696Z,95092.67
2023-05-15T00:58:13.124Z,95092.08
2023-05-15T00:59:19.719Z,95087.64
2023-05-15T01:00:28.242Z,95084.77
2023-05-15T01:01:34.844Z,95075.27
2023-05-15T01:02:41.318Z,95073.66
2023-05-15T01:03:48.135Z,95080.55
2023-05-15T01:04:54.641Z,95082.45
2023-05-15T01:06:01.797Z,95082.73
2023-05-15T01:07:08.217Z,95082.42
2023-05-15T01:08:21.723Z,95078.17
2023-05-15T01:09:30.245Z,95075.48
2023-05-15T01:10:38.880Z,95075.94
2023-05-15T01:11:47.589Z,95072.05
2023-05-15T01:12:59.336Z,95067.02
2023-05-15T01:14:09.320Z,95069.34
2023-05-15T01:15:15.014Z,95065.25
2023-05-15T01:16:22.831Z,95060.83
2023-05-15T01:17:28.616Z,95061.83
2023-05-15T01:18:35.203Z,95062.20
2023-05-15T01:19:42.156Z,95064.59
2023-05-15T01:21:13.794Z,95068.63
2023-05-15T01:22:41.136Z,95068.95
2023-05-15T01:24:04.292Z,95072.09
2023-05-15T01:26:06.323Z,95075.81
2023-05-15T01:27:23.723Z,95069.88
2023-05-15T01:28:34.509Z,95069.20
2023-05-15T01:29:46.401Z,95070.37
2023-05-15T01:30:56.021Z,95072.27
2023-05-15T01:32:07.459Z,95070.67
2023-05-15T01:33:28.457Z,95065.94
2023-05-15T01:34:46.085Z,95064.19
2023-05-15T01:35:59.771Z,95060.34
2023-05-15T01:37:11.457Z,95061.06
2023-05-15T01:38:33.709Z,95060.91
2023-05-15T01:39:45.639Z,95060.08
2023-05-15T01:40:58.432Z,95063.52
2023-05-15T01:42:08.270Z,95060.55
2023-05-15T01:43:22.731Z,95062.86
2023-05-15T01:44:32.186Z,95063.39
2023-05-15T01:45:41.122Z,95066.13
2023-05-15T01:46:50.525Z,95060.45
2023-05-15T01:47:59.579Z,95060.04
2023-05-15T01:49:05.387Z,95057.98
2023-05-15T01:50:15.776Z,95053.65
2023-05-15T01:51:26.340Z,95056.77
2023-05-15T01:52:36.568Z,95058.71
2023-05-15T01:53:44.254Z,95056.13
2023-05-15T01:54:54.810Z,95057.34
2023-05-15T01:56:03.928Z,95056.77
2023-05-15T01:57:10.465Z,95056.77
2023-05-15T01:58:18.599Z,95056.89
2023-05-15T01:59:27.091Z,95052.19
2023-05-15T02:00:36.074Z,95051.60
2023-05-15T02:01:45.441Z,95050.42
2023-05-15T02:02:52.558Z,95052.89
2023-05-15T02:04:00.811Z,95050.61
2023-05-15T02:05:10.452Z,95047.11
2023-05-15T02:06:16.828Z,95048.27
2023-05-15T02:07:23.586Z,95043.87
2023-05-15T02:08:30.760Z,95039.41
2023-05-15T02:09:43.371Z,95042.04
2023-05-15T02:10:53.135Z,95038.26
2023-05-15T02:12:00.214Z,95033.12
2023-05-15T02:13:10.230Z,95032.22
2023-05-15T02:14:17.589Z,95024.31
2023-05-15T02:15:24.872Z,95021.52
2023-05-15T02:16:31.246Z,95019.15
2023-05-15T02:17:40.081Z,95010.69
2023-05-15T02:18:44.610Z,95011.64
2023-05-15T02:19:51.402Z,95008.39
2023-05-15T02:20:58.112Z,95010.20
2023-05-15T02:22:04.134Z,95011.73
2023-05-15T02:23:10.511Z,95009.61
2023-05-15T02:24:16.784Z,95006.04
2023-05-15T02:25:38.965Z,95003.21
2023-05-15T02:26:58.548Z,95002.96
2023-05-15T02:28:11.768Z,95005.85
2023-05-15T02:29:26.652Z,95006.14
2023-05-15T02:30:41.916Z,95004.46
2023-05-15T02:31:51.798Z,95003.45
2023-05-15T02:33:06.703Z,95001.87
2023-05-15T02:34:23.443Z,94999.29
2023-05-15T02:35:42.845Z,95002.92
2023-05-15T02:36:51.851Z,94997.61
2023-05-15T02:38:10.205Z,94993.95
2023-05-15T02:39:18.626Z,94993.92
2023-05-15T02:40:28.447Z,94993.73
2023-05-15T02:41:40.053Z,94997.13
2023-05-15T02:42:52.652Z,95002.64
2023-05-15T02:44:00.632Z,94997.86
2023-05-15T02:45:08.529Z,94998.52
2023-05-15T02:46:15.843Z,94998.84
2023-05-15T02:47:23.595Z,95001.19
2023-05-15T02:48:35.475Z,95006.04
2023-05-15T02:49:41.668Z,95004.83
2023-05-15T02:50:48.111Z,95005.64
2023-05-15T02:51:54.167Z,95007.48
2023-05-15T02:53:07.463Z,95000.48
2023-05-15T02:54:14.444Z,95001.44
2023-05-15T02:55:21.569Z,95002.41
2023-05-15T02:56:28.230Z,94998.88
2023-05-15T02:57:34.102Z,95001.61
2023-05-15T02:58:41.008Z,95006.67
2023-05-15T02:59:49.397Z,95007.25
2023-05-15T03:00:57.699Z,95010.67
2023-05-15T03:02:06.197Z,95014.54
2023-05-15T03:03:12.663Z,95011.13
2023-05-15T03:04:19.316Z,95006.31
2023-05-15T03:05:26.420Z,95006.36
2023-05-15T03:06:32.852Z,95006.94
2023-05-15T03:07:38.728Z,95008.73
2023-05-15T03:08:44.736Z,95008.53
2023-05-15T03:09:50.919Z,95010.71
2023-05-15T03:10:57.731Z,95008.40
2023-05-15T03:12:12.028Z,95012.84
2023-05-15T03:13:18.488Z,95010.48
2023-05-15T03:14:25.065Z,95007.90
2023-05-15T03:15:31.310Z,95006.90
2023-05-15T03:16:39.961Z,95002.70
2023-05-15T03:17:46.519Z,95002.27
2023-05-15T03:18:52.860Z,95001.02
2023-05-15T03:19:59.614Z,95001.56
2023-05-15T03:21:09.060Z,95000.44
2023-05-15T03:22:15.290Z,95007.98
2023-05-15T03:23:21.563Z,95005.83
2023-05-15T03:24:28.310Z,95002.42
2023-05-15T03:25:35.505Z,95001.33
2023-05-15T03:26:43.677Z,94993.87
2023-05-15T03:27:49.936Z,94991.05
2023-05-15T03:28:58.740Z,94993.39
2023-05-15T03:30:05.773Z,94993.55
2023-05-15T03:31:14.703Z,94990.05
2023-05-15T03:32:21.179Z,94987.63
2023-05-15T03:33:29.160Z,94986.30
2023-05-15T03:34:35.618Z,94983.09
2023-05-15T03:35:41.953Z,94980.66
2023-05-15T03:36:48.453Z,94978.73
2023-05-15T03:37:54.440Z,94976.85
2023-05-15T03:39:00.274Z,94971.38
2023-05-15T03:40:09.408Z,94961.59
2023-05-15T03:41:15.378Z,94960.30
2023-05-15T03:42:23.849Z,94959.06
2023-05-15T03:43:30.137Z,94962.81
2023-05-15T03:44:36.386Z,94970.60
2023-05-15T03:45:42.406Z,94962.29
2023-05-15T03:46:48.859Z,94961.96
2023-05-15T03:47:55.082Z,94960.09
2023-05-15T03:49:01.631Z,94954.33
2023-05-15T03:50:09.861Z,94950.81
2023-05-15T03:51:15.955Z,94955.68
2023-05-15T03:52:22.201Z,94957.03
2023-05-15T03:53:28.144Z,94955.74
2023-05-15T03:54:35.261Z,94956.86
2023-05-15T03:55:43.041Z,94962.85
2023-05-15T03:56:49.520Z,94960.01
2023-05-15T03:57:56.947Z,94959.42
2023-05-15T03:59:03.203Z,94961.20
2023-05-15T04:00:12.319Z,94959.45
2023-05-15T04:01:16.480Z,94958.81
2023-05-15T04:02:22.436Z,94955.09
2023-05-15T04:03:29.746Z,94956.00
2023-05-15T04:04:39.018Z,94952.45
2023-05-15T04:05:45.207Z,94951.61
2023-05-15T04:06:51.574Z,94947.38
2023-05-15T04:07:57.476Z,94945.26
2023-05-15T04:09:04.292Z,94943.44
2023-05-15T04:10:13.846Z,94940.30
2023-05-15T04:11:19.932Z,94940.45
2023-05-15T04:12:28.709Z,94938.55
2023-05-15T04:13:36.439Z,94937.60
2023-05-15T04:14:42.443Z,94937.54
2023-05-15T04:15:49.911Z,94939.83
2023-05-15T04:16:56.088Z,94936.97
2023-05-15T04:18:02.606Z,94941.77
2023-05-15T04:19:08.857Z,94940.52
2023-05-15T04:20:17.325Z,94943.14
2023-05-15T04:21:23.384Z,94942.35
2023-05-15T04:22:29.460Z,94941.12
2023-05-15T04:23:36.485Z,94938.48
2023-05-15T04:24:42.996Z,94936.99
2023-05-15T04:25:49.429Z,94939.08
2023-05-15T04:26:55.677Z,94947.17
2023-05-15T04:28:02.321Z,94948.75
2023-05-15T04:29:10.011Z,94952.60
2023-05-15T04:30:17.007Z,94958.31
2023-05-15T04:31:24.168Z,94952.94
2023-05-15T04:32:31.168Z,94956.55
2023-05-15T04:33:39.939Z,94955.13
2023-05-15T04:34:46.604Z,94956.93
2023-05-15T04:35:54.123Z,94951.95
2023-05-15T04:37:00.006Z,94948.68
2023-05-15T04:38:06.709Z,94949.33
2023-05-15T04:39:12.995Z,94952.14
2023-05-15T04:40:19.120Z,94955.83
2023-05-15T04:41:26.724Z,94956.64
2023-05-15T04:42:32.921Z,94960.20
2023-05-15T04:43:39.936Z,94957.02
2023-05-15T04:44:48.441Z,94955.24
2023-05-15T04:45:55.318Z,94958.77
2023-05-15T04:47:01.082Z,94956.28
2023-05-15T04:48:08.568Z,94955.05
2023-05-15T04:49:15.615Z,94959.52
2023-05-15T04:50:21.980Z,94961.56
2023-05-15T04:51:28.317Z,94961.91
2023-05-15T04:52:34.037Z,94964.79
2023-05-15T04:53:41.186Z,94961.87
2023-05-15T04:54:50.550Z,94967.14
2023-05-15T04:55:59.280Z,94967.54
2023-05-15T04:57:08.070Z,94973.06
2023-05-15T04:58:14.210Z,94966.02
2023-05-15T04:59:21.118Z,94969.13
2023-05-15T05:00:30.096Z,94968.61
2023-05-15T05:01:34.557Z,94967.16
2023-05-15T05:02:46.143Z,94966.42
2023-05-15T05:03:52.092Z,94966.05
2023-05-15T05:04:59.336Z,94966.30
2023-05-15T05:06:06.438Z,94966.85
2023-05-15T05:07:12.831Z,94971.30
2023-05-15T05:08:19.078Z,94966.66
2023-05-15T05:09:25.619Z,94963.57
2023-05-15T05:10:33.102Z,94963.65
2023-05-15T05:11:44.261Z,94964.36
2023-05-15T05:12:51.356Z,94958.95
2023-05-15T05:13:58.730Z,94955.90
2023-05-15T05:15:11.583Z,94959.02
2023-05-15T05:16:18.679Z,94951.36
2023-05-15T05:17:25.177Z,94946.40
2023-05-15T05:18:32.440Z,94942.98
2023-05-15T05:19:39.715Z,94945.22
2023-05-15T05:20:46.214Z,94939.54
2023-05-15T05:21:52.953Z,94934.94
2023-05-15T05:23:00.193Z,94934.51
2023-05-15T05:24:07.518Z,94938.81
2023-05-15T05:25:14.499Z,94937.73
2023-05-15T05:26:21.123Z,94934.50
2023-05-15T05:27:27.903Z,94931.80
2023-05-15T05:28:35.077Z,94929.20
2023-05-15T05:29:41.752Z,94926.58
2023-05-15T05:30:51.087Z,94925.45
2023-05-15T05:31:58.144Z,94919.80
2023-05-15T05:33:04.528Z,94926.20
2023-05-15T05:34:10.949Z,94922.93
2023-05-15T05:35:24.784Z,94931.77
2023-05-15T05:36:33.598Z,94934.88
2023-05-15T05:37:41.220Z,94936.39
2023-05-15T05:38:48.375Z,94938.39
2023-05-15T05:39:55.059Z,94939.50
2023-05-15T05:41:02.416Z,94938.81
2023-05-15T05:42:10.010Z,94938.05
2023-05-15T05:43:17.630Z,94935.61
2023-05-15T05:44:23.739Z,94938.66
2023-05-15T05:45:30.600Z,94940.23
2023-05-15T05:46:37.211Z,94937.62
2023-05-15T05:47:43.958Z,94931.63
2023-05-15T05:48:50.187Z,94933.60
2023-05-15T05:49:56.933Z,94931.93
2023-05-15T05:51:03.251Z,94933.67
2023-05-15T05:52:10.812Z,94926.46
2023-05-15T05:53:19.419Z,94926.67
2023-05-15T05:54:27.077Z,94925.76
2023-05-15T05:55:33.597Z,94925.44
2023-05-15T05:56:39.648Z,94919.58
2023-05-15T05:57:45.978Z,94921.10
2023-05-15T05:58:52.046Z,94921.57
2023-05-15T05:59:58.692Z,94919.05
2023-05-15T06:01:05.876Z,94920.95
2023-05-15T06:02:15.238Z,94923.16
2023-05-15T06:03:21.993Z,94920.23
2023-05-15T06:04:28.671Z,94917.38
2023-05-15T06:05:44.707Z,94912.39
2023-05-15T06:06:51.377Z,94912.06
2023-05-15T06:07:58.772Z,94910.04
2023-05-15T06:09:05.891Z,94908.73
2023-05-15T06:10:13.936Z,94910.42
2023-05-15T06:11:25.323Z,94908.47
2023-05-15T06:12:32.268Z,94910.50
2023-05-15T06:13:41.435Z,94903.15
2023-05-15T06:14:47.535Z,94900.69
2023-05-15T06:15:53.482Z,94893.89
2023-05-15T06:17:00.637Z,94895.22
2023-05-15T06:18:09.270Z,94891.94
2023-05-15T06:19:17.447Z,94894.42
2023-05-15T06:20:24.642Z,94893.55
2023-05-15T06:21:31.141Z,94894.63
2023-05-15T06:22:39.402Z,94893.09
2023-05-15T06:23:46.604Z,94891.11
2023-05-15T06:24:53.034Z,94887.52
2023-05-15T06:25:59.500Z,94887.22
2023-05-15T06:27:06.702Z,94884.61
2023-05-15T06:28:13.164Z,94884.44
2023-05-15T06:29:19.513Z,94885.00
2023-05-15T06:30:26.012Z,94886.30
2023-05-15T06:31:38.349Z,94888.20
2023-05-15T06:32:46.143Z,94888.48
2023-05-15T06:33:51.927Z,94889.80
2023-05-15T06:34:58.349Z,94888.56
2023-05-15T06:36:07.486Z,94888.98
2023-05-15T06:37:13.459Z,94885.03
2023-05-15T06:38:22.147Z,94884.66
2023-05-15T06:39:28.305Z,94886.66
2023-05-15T06:40:34.883Z,94887.13
2023-05-15T06:41:41.639Z,94883.66
2023-05-15T06:42:50.027Z,94885.09
2023-05-15T06:43:56.459Z,94882.56
2023-05-15T06:45:03.065Z,94878.52
2023-05-15T06:46:09.577Z,94877.35
2023-05-15T06:47:15.719Z,94875.84
2023-05-15T06:48:21.810Z,94874.98
2023-05-15T06:49:31.042Z,94872.23
2023-05-15T06:50:37.116Z,94871.83
2023-05-15T06:51:51.351Z,94864.85
2023-05-15T06:53:01.496Z,94862.79
2023-05-15T06:54:10.503Z,94863.83
2023-05-15T06:55:14.961Z,94858.27
2023-05-15T06:56:22.969Z,94860.33
2023-05-15T06:57:28.991Z,94856.35
2023-05-15T06:58:35.924Z,94850.70
2023-05-15T06:59:42.060Z,94855.03
2023-05-15T07:00:48.238Z,94851.27
2023-05-15T07:01:56.352Z,94849.29
2023-05-15T07:03:03.644Z,94847.79
2023-05-15T07:04:10.162Z,94843.52
2023-05-15T07:05:17.449Z,94842.21
2023-05-15T07:06:24.023Z,94838.42
2023-05-15T07:07:30.281Z,94838.60
2023-05-15T07:08:37.365Z,94836.70
2023-05-15T07:09:45.843Z,94834.83
2023-05-15T07:10:51.904Z,94829.73
2023-05-15T07:11:59.348Z,94829.11
2023-05-15T07:13:05.918Z,94821.65
2023-05-15T07:14:12.271Z,94824.07
2023-05-15T07:15:18.667Z,94820.23
2023-05-15T07:16:24.718Z,94823.10
2023-05-15T07:17:32.273Z,94823.46
2023-05-15T07:18:38.896Z,94820.96
2023-05-15T07:19:46.646Z,94820.90
2023-05-15T07:20:56.484Z,94818.80
2023-05-15T07:22:03.878Z,94818.24
2023-05-15T07:23:10.236Z,94818.48
2023-05-15T07:24:16.288Z,94815.23
2023-05-15T07:25:23.308Z,94814.27
2023-05-15T07:26:43.632Z,94814.41
2023-05-15T07:27:58.311Z,94806.63
2023-05-15T07:29:04.586Z,94801.81
2023-05-15T07:30:12.744Z,94804.22
2023-05-15T07:31:18.119Z,94807.77
2023-05-15T07:32:24.672Z,94803.08
2023-05-15T07:33:31.219Z,94803.56
2023-05-15T07:34:37.488Z,94801.53
2023-05-15T07:35:43.702Z,94802.92
2023-05-15T07:36:52.009Z,94804.43
2023-05-15T07:37:58.363Z,94808.58
2023-05-15T07:39:06.353Z,94810.71
2023-05-15T07:40:16.491Z,94816.41
2023-05-15T07:41:22.780Z,94818.34
2023-05-15T07:42:30.332Z,94815.90
2023-05-15T07:43:37.507Z,94818.58
2023-05-15T07:44:45.401Z,94819.84
2023-05-15T07:45:52.905Z,94818.52
2023-05-15T07:47:01.080Z,94821.92
2023-05-15T07:48:18.608Z,94821.80
2023-05-15T07:49:24.834Z,94817.07
2023-05-15T07:50:31.262Z,94820.29
2023-05-15T07:51:37.229Z,94814.27
2023-05-15T07:52:44.138Z,94814.42
2023-05-15T07:53:50.267Z,94814.35
2023-05-15T07:54:56.613Z,94817.85
2023-05-15T07:56:02.565Z,94815.98
2023-05-15T07:57:09.554Z,94816.90
2023-05-15T07:58:15.483Z,94816.38
2023-05-15T07:59:21.793Z,94819.42
2023-05-15T08:00:27.800Z,94817.90
2023-05-15T08:01:34.043Z,94817.42
2023-05-15T08:02:40.912Z,94817.67
2023-05-15T08:03:47.316Z,94816.20
2023-05-15T08:04:54.055Z,94818.77
2023-05-15T08:06:00.397Z,94825.71
2023-05-15T08:07:07.092Z,94825.84
2023-05-15T08:08:13.849Z,94825.61
2023-05-15T08:09:20.579Z,94828.84
2023-05-15T08:10:26.938Z,94829.31
2023-05-15T08:11:33.565Z,94831.96
2023-05-15T08:12:46.292Z,94830.81
2023-05-15T08:13:53.644Z,94832.13
2023-05-15T08:14:59.933Z,94833.70
2023-05-15T08:16:08.365Z,94832.81
2023-05-15T08:17:15.214Z,94833.44
2023-05-15T08:18:21.460Z,94831.96
2023-05-15T08:19:27.450Z,94833.71
2023-05-15T08:20:34.070Z,94830.02
2023-05-15T08:21:40.956Z,94829.22
2023-05-15T08:22:47.699Z,94825.89
2023-05-15T08:23:54.697Z,94826.41
2023-05-15T08:25:04.497Z,94825.98
2023-05-15T08:26:11.391Z,94826.61
2023-05-15T08:27:18.033Z,94822.67
2023-05-15T08:28:24.129Z,94820.13
2023-05-15T08:29:30.775Z,94818.39
2023-05-15T08:30:36.898Z,94818.11
2023-05-15T08:31:43.265Z,94818.38
2023-05-15T08:32:49.841Z,94816.59
2023-05-15T08:33:56.078Z,94812.91
2023-05-15T08:35:02.423Z,94815.22
2023-05-15T08:36:10.327Z,94810.25
2023-05-15T08:37:17.076Z,94810.99
2023-05-15T08:38:24.557Z,94809.85
2023-05-15T08:39:31.213Z,94808.84
2023-05-15T08:40:39.612Z,94810.26
2023-05-15T08:41:54.872Z,94811.95
2023-05-15T08:43:04.905Z,94807.52
2023-05-15T08:44:13.524Z,94805.02
2023-05-15T08:45:20.491Z,94804.04
2023-05-15T08:46:27.486Z,94811.69
2023-05-15T08:47:40.563Z,94812.14
2023-05-15T08:48:47.177Z,94815.12
2023-05-15T08:50:05.293Z,94813.62
2023-05-15T08:51:13.492Z,94813.88
2023-05-15T08:52:20.731Z,94813.60
2023-05-15T08:53:29.065Z,94812.11
2023-05-15T08:54:35.006Z,94810.47
2023-05-15T08:55:42.101Z,94811.11
2023-05-15T08:56:48.978Z,94807.64
2023-05-15T08:57:57.786Z,94809.34
2023-05-15T08:59:02.694Z,94811.41
2023-05-15T09:00:15.107Z,94809.67
2023-05-15T09:01:21.671Z,94805.14
2023-05-15T09:02:27.776Z,94804.30
2023-05-15T09:03:34.505Z,94800.20
2023-05-15T09:04:42.373Z,94800.77
2023-05-15T09:05:53.947Z,94801.01
2023-05-15T09:07:01.000Z,94799.83
2023-05-15T09:08:08.582Z,94799.46
2023-05-15T09:09:16.995Z,94800.13
2023-05-15T09:10:24.221Z,94803.92
2023-05-15T09:11:32.256Z,94801.81
2023-05-15T09:12:44.430Z,94800.81
2023-05-15T09:13:51.187Z,94801.04
2023-05-15T09:15:16.118Z,94801.49
2023-05-15T09:16:23.163Z,94802.80
2023-05-15T09:17:30.087Z,94805.16
2023-05-15T09:18:37.688Z,94808.04
2023-05-15T09:19:44.908Z,94808.47
2023-05-15T09:20:56.209Z,94805.55
2023-05-15T09:22:18.284Z,94803.29
2023-05-15T09:23:29.930Z,94802.09
2023-05-15T09:24:41.038Z,94805.73
2023-05-15T09:25:53.907Z,94807.80
2023-05-15T09:27:07.639Z,94808.01
2023-05-15T09:28:30.219Z,94802.94
2023-05-15T09:29:38.339Z,94803.43
2023-05-15T09:30:44.621Z,94803.80
2023-05-15T09:31:50.989Z,94798.80
2023-05-15T09:32:59.988Z,94800.92
2023-05-15T09:34:06.744Z,94797.84
2023-05-15T09:35:31.748Z,94789.34
2023-05-15T09:36:44.267Z,94786.98
2023-05-15T09:38:01.101Z,94787.67
2023-05-15T09:39:09.026Z,94791.25
2023-05-15T09:40:21.120Z,94793.80
2023-05-15T09:41:28.996Z,94791.55
2023-05-15T09:42:37.622Z,94791.27
2023-05-15T09:43:43.993Z,94788.63
2023-05-15T09:44:50.140Z,94788.89
2023-05-15T09:45:57.163Z,94784.39
2023-05-15T09:47:05.554Z,94778.36
2023-05-15T09:48:14.321Z,94782.26
2023-05-15T09:49:20.479Z,94778.52
2023-05-15T09:50:35.043Z,94781.23
2023-05-15T09:51:41.622Z,94781.14
2023-05-15T09:52:48.419Z,94776.36
2023-05-15T09:53:55.562Z,94778.63
2023-05-15T09:55:02.197Z,94780.88
2023-05-15T09:56:08.941Z,94780.61
2023-05-15T09:57:23.339Z,94780.27
2023-05-15T09:58:30.597Z,94783.51
2023-05-15T09:59:43.535Z,94784.27
2023-05-15T10:00:50.159Z,94784.61
2023-05-15T10:01:56.460Z,94783.23
2023-05-15T10:03:09.045Z,94782.97
2023-05-15T10:04:16.298Z,94776.41
2023-05-15T10:05:42.427Z,94777.40
2023-05-15T10:06:52.762Z,94778.19
2023-05-15T10:08:00.997Z,94776.38
2023-05-15T10:09:07.860Z,94774.06
2023-05-15T10:10:15.392Z,94781.56
2023-05-15T10:11:23.963Z,94780.13
2023-05-15T10:12:32.063Z,94788.14
2023-05-15T10:13:38.856Z,94784.00
2023-05-15T10:14:45.120Z,94783.37
2023-05-15T10:15:53.583Z,94782.88
2023-05-15T10:17:00.620Z,94781.20
2023-05-15T10:18:08.020Z,94787.63
2023-05-15T10:19:15.645Z,94785.19
2023-05-15T10:20:26.675Z,94783.34
2023-05-15T10:21:34.488Z,94785.02
2023-05-15T10:22:46.218Z,94787.46
2023-05-15T10:24:01.635Z,94785.23
2023-05-15T10:25:16.071Z,94786.98
2023-05-15T10:26:30.640Z,94792.86
2023-05-15T10:27:39.125Z,94795.64
2023-05-15T10:28:51.308Z,94799.52
2023-05-15T10:30:00.318Z,94798.23
2023-05-15T10:31:07.530Z,94799.78
2023-05-15T10:32:16.440Z,94806.91
2023-05-15T10:33:24.641Z,94805.21
2023-05-15T10:34:31.288Z,94804.60
2023-05-15T10:35:41.440Z,94803.55
2023-05-15T10:36:50.326Z,94803.30
2023-05-15T10:37:57.326Z,94802.13
2023-05-15T10:39:04.656Z,94803.46
2023-05-15T10:40:13.273Z,94795.98
2023-05-15T10:41:18.221Z,94796.23
2023-05-15T10:42:26.781Z,94796.74
2023-05-15T10:43:35.655Z,94787.96
2023-05-15T10:44:42.541Z,94789.77
2023-05-15T10:45:48.707Z,94788.52
2023-05-15T10:46:55.487Z,94782.85
2023-05-15T10:48:02.810Z,94783.54
2023-05-15T10:49:08.893Z,94780.35
2023-05-15T10:50:15.788Z,94779.09
2023-05-15T10:51:29.125Z,94778.11
2023-05-15T10:52:40.920Z,94779.32
2023-05-15T10:53:47.755Z,94783.08
2023-05-15T10:54:56.975Z,94780.89
2023-05-15T10:56:04.823Z,94787.08
2023-05-15T10:57:11.543Z,94790.31
2023-05-15T10:58:17.896Z,94792.34
2023-05-15T10:59:33.156Z,94798.85
2023-05-15T11:00:44.671Z,94794.89
2023-05-15T11:01:51.392Z,94797.66
2023-05-15T11:02:59.764Z,94792.42
2023-05-15T11:04:11.246Z,94792.80
2023-05-15T11:05:20.501Z,94782.69
2023-05-15T11:06:32.602Z,94779.25
2023-05-15T11:07:38.895Z,94773.87
2023-05-15T11:08:46.675Z,94771.17
2023-05-15T11:09:53.388Z,94767.77
2023-05-15T11:10:59.887Z,94769.24
2023-05-15T11:12:09.286Z,94772.35
2023-05-15T11:13:15.669Z,94769.83
2023-05-15T11:14:24.564Z,94777.47
2023-05-15T11:15:42.611Z,94780.34
2023-05-15T11:17:06.105Z,94780.34
2023-05-15T11:18:12.711Z,94773.34
2023-05-15T11:19:33.682Z,94771.55
2023-05-15T11:21:04.381Z,94771.30
2023-05-15T11:22:21.572Z,94773.85
2023-05-15T11:23:27.929Z,94780.76
2023-05-15T11:24:49.390Z,94778.40
2023-05-15T11:25:58.054Z,94779.84
2023-05-15T11:27:05.428Z,94772.01
2023-05-15T11:28:23.366Z,94777.14
2023-05-15T11:29:29.408Z,94776.34
2023-05-15T11:30:40.377Z,94775.71
2023-05-15T11:31:46.419Z,94773.27
2023-05-15T11:32:59.588Z,94775.66
2023-05-15T11:34:08.400Z,94777.02
2023-05-15T11:35:22.278Z,94779.39
2023-05-15T11:36:37.604Z,94779.23
2023-05-15T11:37:49.999Z,94777.36
2023-05-15T11:38:59.506Z,94782.13
2023-05-15T11:40:09.334Z,94782.31
2023-05-15T11:41:31.844Z,94779.86
2023-05-15T11:42:38.314Z,94788.05
2023-05-15T11:43:45.129Z,94781.65
2023-05-15T11:44:52.621Z,94784.96
2023-05-15T11:46:06.337Z,94783.71
2023-05-15T11:47:13.998Z,94775.04
2023-05-15T11:48:21.695Z,94775.17
2023-05-15T11:49:28.795Z,94771.66
2023-05-15T11:50:35.792Z,94776.73
2023-05-15T11:51:43.426Z,94776.95
2023-05-15T11:52:52.542Z,94774.22
2023-05-15T11:54:00.712Z,94775.83
2023-05-15T11:55:11.178Z,94777.55
2023-05-15T11:56:23.826Z,94775.29
2023-05-15T11:57:30.096Z,94781.86
2023-05-15T11:58:35.763Z,94784.02
2023-05-15T11:59:41.845Z,94783.52
2023-05-15T12:00:50.492Z,94786.83
2023-05-15T12:01:54.865Z,94786.37
2023-05-15T12:03:01.501Z,94788.29
2023-05-15T12:04:16.127Z,94786.11
2023-05-15T12:05:24.565Z,94791.12
2023-05-15T12:06:32.366Z,94788.26
2023-05-15T12:07:41.633Z,94789.59
2023-05-15T12:08:54.588Z,94788.64
2023-05-15T12:10:03.548Z,94792.30
2023-05-15T12:11:10.314Z,94787.70
2023-05-15T12:12:16.623Z,94794.27
2023-05-15T12:13:24.864Z,94795.50
2023-05-15T12:14:31.028Z,94786.77
2023-05-15T12:15:40.337Z,94789.13
2023-05-15T12:16:46.579Z,94788.14
2023-05-15T12:17:52.301Z,94787.23
2023-05-15T12:19:00.528Z,94787.27
2023-05-15T12:20:14.548Z,94789.41
2023-05-15T12:21:21.057Z,94789.19
2023-05-15T12:22:27.305Z,94789.89
2023-05-15T12:23:34.282Z,94791.95
2023-05-15T12:24:45.681Z,94792.63
2023-05-15T12:25:58.941Z,94791.52
2023-05-15T12:27:06.239Z,94798.55
2023-05-15T12:28:14.613Z,94796.84
2023-05-15T12:29:19.464Z,94798.06
2023-05-15T12:30:27.433Z,94801.93
2023-05-15T12:31:35.786Z,94805.63
2023-05-15T12:32:42.360Z,94806.20
2023-05-15T12:33:49.027Z,94808.19
2023-05-15T12:34:55.366Z,94814.10
2023-05-15T12:36:01.942Z,94816.51
2023-05-15T12:37:13.997Z,94820.94
2023-05-15T12:38:22.622Z,94818.84
2023-05-15T12:39:29.438Z,94817.20
2023-05-15T12:40:37.384Z,94817.33
2023-05-15T12:41:47.137Z,94822.84
2023-05-15T12:42:57.978Z,94820.70
2023-05-15T12:44:05.150Z,94823.23
2023-05-15T12:45:19.540Z,94823.15
2023-05-15T12:46:26.257Z,94818.10
2023-05-15T12:47:33.153Z,94816.17
2023-05-15T12:48:40.582Z,94812.58
2023-05-15T12:49:48.501Z,94812.29
2023-05-15T12:50:54.549Z,94813.50
2023-05-15T12:52:10.418Z,94817.27
2023-05-15T12:53:16.891Z,94815.73
2023-05-15T12:54:24.363Z,94820.64
2023-05-15T12:55:34.441Z,94820.45
2023-05-15T12:56:44.334Z,94817.31
2023-05-15T12:57:51.238Z,94817.92
2023-05-15T12:58:58.278Z,94820.09
2023-05-15T13:00:07.959Z,94815.42
2023-05-15T13:01:14.835Z,94811.89
2023-05-15T13:02:23.087Z,94809.85
2023-05-15T13:03:32.050Z,94803.02
2023-05-15T13:04:38.190Z,94803.74
2023-05-15T13:05:46.906Z,94806.37
2023-05-15T13:06:55.600Z,94804.63
2023-05-15T13:08:03.511Z,94803.14
2023-05-15T13:09:10.379Z,94808.84
2023-05-15T13:10:16.417Z,94812.33
2023-05-15T13:11:22.785Z,94814.34
2023-05-15T13:12:35.687Z,94816.66
2023-05-15T13:13:48.887Z,94817.94
2023-05-15T13:14:54.851Z,94818.42
2023-05-15T13:16:01.432Z,94821.71
2023-05-15T13:17:08.590Z,94820.77
2023-05-15T13:18:16.492Z,94828.31
2023-05-15T13:19:23.373Z,94829.45
2023-05-15T13:20:33.491Z,94830.69
2023-05-15T13:21:41.075Z,94826.73
2023-05-15T13:22:47.864Z,94827.70
2023-05-15T13:23:54.035Z,94827.80